MSC Armonia — H8EW — position and weather

sailwx.info

Track history (hours):
 
Tides and Currents Weather Stations Pressure Air Temp Water Temp Dewpoint Dewpoint Depression Visibility Wind Speed Wind Dir Waves Ship Positions

MSC Armonia

Operator: Mediterranean Shipping Company

Last reported at 2019-Oct-21 23:16 UTC. Time now 2019-Oct-22 23:55 UTC.
Position N 25°34' W 079°52'.

Length 275 m; draft 6.8 m.

Type: Ship. MMSI: 357281000.

Date/timePositionNaut miles runAvg speedWind from/ knotsBaromVisibWave heightAir tempDewpointWater temp
2019-Oct-21 23:16N 25°34' W 079°52'416.2
2019-Oct-21 23:00N 25°37' W 079°55'917.3
2019-Oct-21 22:30N 25°43' W 080°01'510.7
2019-Oct-21 22:01N 25°45' W 080°07'3 6.8
2019-Oct-21 21:30N 25°47' W 080°10'0 0.0
2019-Oct-21 21:00N 25°47' W 080°10'0 0.0
2019-Oct-21 20:30N 25°47' W 080°10'0 0.0
2019-Oct-21 20:00N 25°47' W 080°10'0 0.0
2019-Oct-21 19:30N 25°47' W 080°10'0 0.0
2019-Oct-21 19:00N 25°47' W 080°10'0 0.0
2019-Oct-21 18:30N 25°47' W 080°10'0 0.0
2019-Oct-21 18:00N 25°47' W 080°10'0 0.0
2019-Oct-21 17:30N 25°47' W 080°10'0 0.0
2019-Oct-21 17:00N 25°47' W 080°10'0 0.0
2019-Oct-21 16:30N 25°47' W 080°10'0 0.0
2019-Oct-21 16:00N 25°47' W 080°10'0 0.0
2019-Oct-21 15:24N 25°47' W 080°10'0 0.0
2019-Oct-21 14:57N 25°47' W 080°10'0 0.0
2019-Oct-21 14:30N 25°47' W 080°10'0 0.0
2019-Oct-21 14:00N 25°47' W 080°10'0 0.0
2019-Oct-21 13:30N 25°47' W 080°10'0 0.0
2019-Oct-21 13:00N 25°47' W 080°10'0 0.0
2019-Oct-21 12:30N 25°47' W 080°10'0 0.0
2019-Oct-21 12:00N 25°47' W 080°10'0 0.0
2019-Oct-21 11:30N 25°47' W 080°10'0 0.0
2019-Oct-21 11:00N 25°47' W 080°10'0 0.0
2019-Oct-21 10:30N 25°47' W 080°10'0 0.0
2019-Oct-21 10:00N 25°47' W 080°10'0 0.4
2019-Oct-21 09:30N 25°47' W 080°10'5 9.5
2019-Oct-21 09:00N 25°46' W 080°05'611.0
2019-Oct-21 08:30N 25°45' W 079°59'611.5
2019-Oct-21 08:00N 25°40' W 079°57'815.2
2019-Oct-21 07:31N 25°32' W 079°57'  
2019-Oct-19 01:35N 20°39' W 086°54'112.6
2019-Oct-19 01:30N 20°38' W 086°55'612.1
2019-Oct-19 01:00N 20°33' W 086°57'2 3.9
2019-Oct-19 00:28N 20°31' W 086°57'0 0.0
2019-Oct-18 23:58N 20°31' W 086°57'0 0.0
2019-Oct-18 23:28N 20°31' W 086°57'0 0.0
2019-Oct-18 22:58N 20°31' W 086°57'0 0.0
2019-Oct-18 22:28N 20°31' W 086°57'0 0.0
2019-Oct-18 21:58N 20°31' W 086°57'0 0.0
2019-Oct-18 21:28N 20°31' W 086°57'0 0.0
2019-Oct-18 20:55N 20°31' W 086°57'0 0.0
2019-Oct-18 20:25N 20°31' W 086°57'0 0.0
2019-Oct-18 19:55N 20°31' W 086°57'0 0.0
2019-Oct-18 19:25N 20°31' W 086°57'0 0.0
2019-Oct-18 18:58N 20°31' W 086°57'0 0.0
2019-Oct-18 18:25N 20°31' W 086°57'0 0.0
2019-Oct-18 17:58N 20°31' W 086°57'0 0.0
2019-Oct-18 17:28N 20°31' W 086°57'0 0.0
2019-Oct-18 16:58N 20°31' W 086°57'0 0.0
2019-Oct-18 16:28N 20°31' W 086°57'0 0.0
2019-Oct-18 15:58N 20°31' W 086°57'0 0.0
2019-Oct-18 15:25N 20°31' W 086°57'0 0.0
2019-Oct-18 14:55N 20°31' W 086°57'0 0.0
2019-Oct-18 14:28N 20°31' W 086°57'0 0.8
2019-Oct-18 14:01N 20°31' W 086°57'4 8.1
2019-Oct-18 13:30N 20°35' W 086°56'  
2019-Oct-14 23:27N 25°39' W 079°53'716.0
2019-Oct-14 23:00N 25°43' W 079°59'612.5
2019-Oct-14 22:30N 25°46' W 080°06'5 9.4
2019-Oct-14 22:00N 25°47' W 080°11'0 0.4
2019-Oct-14 21:29N 25°47' W 080°11'0 0.0
2019-Oct-14 20:59N 25°47' W 080°11'0 0.0
2019-Oct-14 20:29N 25°47' W 080°11'0 0.0
2019-Oct-14 19:59N 25°47' W 080°11'0 0.0
2019-Oct-14 19:29N 25°47' W 080°11'0 0.0
2019-Oct-14 18:59N 25°47' W 080°11'0 0.0
2019-Oct-14 18:29N 25°47' W 080°11'0 0.0
2019-Oct-14 17:59N 25°47' W 080°11'0 0.0
2019-Oct-14 17:29N 25°47' W 080°11'0 0.0
2019-Oct-14 16:59N 25°47' W 080°11'0 0.0
2019-Oct-14 16:29N 25°47' W 080°11'0 0.0
2019-Oct-14 15:59N 25°47' W 080°11'0 0.0
2019-Oct-14 15:29N 25°47' W 080°11'0 0.0
2019-Oct-14 14:59N 25°47' W 080°11'0 0.0
2019-Oct-14 14:29N 25°47' W 080°11'0 0.0
2019-Oct-14 13:59N 25°47' W 080°11'0 0.0
2019-Oct-14 13:29N 25°47' W 080°11'0 0.0
2019-Oct-14 12:59N 25°47' W 080°11'0 0.0
2019-Oct-14 12:29N 25°47' W 080°11'0 0.0
2019-Oct-14 11:59N 25°47' W 080°11'0 0.0
2019-Oct-14 11:26N 25°47' W 080°11'0 0.0
2019-Oct-14 10:59N 25°47' W 080°11'0 0.0
2019-Oct-14 10:29N 25°47' W 080°11'1 2.3
2019-Oct-14 10:00N 25°46' W 080°09'510.0
2019-Oct-14 09:30N 25°46' W 080°04'5 9.2
2019-Oct-14 09:01N 25°42' W 080°02'1020.1
2019-Oct-14 08:31N 25°32' W 080°01'  
Track history (hours):
 
Tides and Currents Weather Stations Pressure Air Temp Water Temp Dewpoint Dewpoint Depression Visibility Wind Speed Wind Dir Waves Ship Positions

MSC Armonia

Operator: Mediterranean Shipping Company

Last reported at 2019-Oct-21 23:16 UTC. Time now 2019-Oct-22 23:55 UTC.
Position N 25°34' W 079°52'.

Length 275 m; draft 6.8 m.

Type: Ship. MMSI: 357281000.

Date/timePositionNaut miles runAvg speedWind from/ knotsBaromVisibWave heightAir tempDewpointWater temp
2019-Oct-21 23:16N 25°34' W 079°52'416.2
2019-Oct-21 23:00N 25°37' W 079°55'917.3
2019-Oct-21 22:30N 25°43' W 080°01'510.7
2019-Oct-21 22:01N 25°45' W 080°07'3 6.8
2019-Oct-21 21:30N 25°47' W 080°10'0 0.0
2019-Oct-21 21:00N 25°47' W 080°10'0 0.0
2019-Oct-21 20:30N 25°47' W 080°10'0 0.0
2019-Oct-21 20:00N 25°47' W 080°10'0 0.0
2019-Oct-21 19:30N 25°47' W 080°10'0 0.0
2019-Oct-21 19:00N 25°47' W 080°10'0 0.0
2019-Oct-21 18:30N 25°47' W 080°10'0 0.0
2019-Oct-21 18:00N 25°47' W 080°10'0 0.0
2019-Oct-21 17:30N 25°47' W 080°10'0 0.0
2019-Oct-21 17:00N 25°47' W 080°10'0 0.0
2019-Oct-21 16:30N 25°47' W 080°10'0 0.0
2019-Oct-21 16:00N 25°47' W 080°10'0 0.0
2019-Oct-21 15:24N 25°47' W 080°10'0 0.0
2019-Oct-21 14:57N 25°47' W 080°10'0 0.0
2019-Oct-21 14:30N 25°47' W 080°10'0 0.0
2019-Oct-21 14:00N 25°47' W 080°10'0 0.0
2019-Oct-21 13:30N 25°47' W 080°10'0 0.0
2019-Oct-21 13:00N 25°47' W 080°10'0 0.0
2019-Oct-21 12:30N 25°47' W 080°10'0 0.0
2019-Oct-21 12:00N 25°47' W 080°10'0 0.0
2019-Oct-21 11:30N 25°47' W 080°10'0 0.0
2019-Oct-21 11:00N 25°47' W 080°10'0 0.0
2019-Oct-21 10:30N 25°47' W 080°10'0 0.0
2019-Oct-21 10:00N 25°47' W 080°10'0 0.4
2019-Oct-21 09:30N 25°47' W 080°10'5 9.5
2019-Oct-21 09:00N 25°46' W 080°05'611.0
2019-Oct-21 08:30N 25°45' W 079°59'611.5
2019-Oct-21 08:00N 25°40' W 079°57'815.2
2019-Oct-21 07:31N 25°32' W 079°57'  
2019-Oct-19 01:35N 20°39' W 086°54'112.6
2019-Oct-19 01:30N 20°38' W 086°55'612.1
2019-Oct-19 01:00N 20°33' W 086°57'2 3.9
2019-Oct-19 00:28N 20°31' W 086°57'0 0.0
2019-Oct-18 23:58N 20°31' W 086°57'0 0.0
2019-Oct-18 23:28N 20°31' W 086°57'0 0.0
2019-Oct-18 22:58N 20°31' W 086°57'0 0.0
2019-Oct-18 22:28N 20°31' W 086°57'0 0.0
2019-Oct-18 21:58N 20°31' W 086°57'0 0.0
2019-Oct-18 21:28N 20°31' W 086°57'0 0.0
2019-Oct-18 20:55N 20°31' W 086°57'0 0.0
2019-Oct-18 20:25N 20°31' W 086°57'0 0.0
2019-Oct-18 19:55N 20°31' W 086°57'0 0.0
2019-Oct-18 19:25N 20°31' W 086°57'0 0.0
2019-Oct-18 18:58N 20°31' W 086°57'0 0.0
2019-Oct-18 18:25N 20°31' W 086°57'0 0.0
2019-Oct-18 17:58N 20°31' W 086°57'0 0.0
2019-Oct-18 17:28N 20°31' W 086°57'0 0.0
2019-Oct-18 16:58N 20°31' W 086°57'0 0.0
2019-Oct-18 16:28N 20°31' W 086°57'0 0.0
2019-Oct-18 15:58N 20°31' W 086°57'0 0.0
2019-Oct-18 15:25N 20°31' W 086°57'0 0.0
2019-Oct-18 14:55N 20°31' W 086°57'0 0.0
2019-Oct-18 14:28N 20°31' W 086°57'0 0.8
2019-Oct-18 14:01N 20°31' W 086°57'4 8.1
2019-Oct-18 13:30N 20°35' W 086°56'  
2019-Oct-14 23:27N 25°39' W 079°53'716.0
2019-Oct-14 23:00N 25°43' W 079°59'612.5
2019-Oct-14 22:30N 25°46' W 080°06'5 9.4
2019-Oct-14 22:00N 25°47' W 080°11'0 0.4
2019-Oct-14 21:29N 25°47' W 080°11'0 0.0
2019-Oct-14 20:59N 25°47' W 080°11'0 0.0
2019-Oct-14 20:29N 25°47' W 080°11'0 0.0
2019-Oct-14 19:59N 25°47' W 080°11'0 0.0
2019-Oct-14 19:29N 25°47' W 080°11'0 0.0
2019-Oct-14 18:59N 25°47' W 080°11'0 0.0
2019-Oct-14 18:29N 25°47' W 080°11'0 0.0
2019-Oct-14 17:59N 25°47' W 080°11'0 0.0
2019-Oct-14 17:29N 25°47' W 080°11'0 0.0
2019-Oct-14 16:59N 25°47' W 080°11'0 0.0
2019-Oct-14 16:29N 25°47' W 080°11'0 0.0
2019-Oct-14 15:59N 25°47' W 080°11'0 0.0
2019-Oct-14 15:29N 25°47' W 080°11'0 0.0
2019-Oct-14 14:59N 25°47' W 080°11'0 0.0
2019-Oct-14 14:29N 25°47' W 080°11'0 0.0
2019-Oct-14 13:59N 25°47' W 080°11'0 0.0
2019-Oct-14 13:29N 25°47' W 080°11'0 0.0
2019-Oct-14 12:59N 25°47' W 080°11'0 0.0
2019-Oct-14 12:29N 25°47' W 080°11'0 0.0
2019-Oct-14 11:59N 25°47' W 080°11'0 0.0
2019-Oct-14 11:26N 25°47' W 080°11'0 0.0
2019-Oct-14 10:59N 25°47' W 080°11'0 0.0
2019-Oct-14 10:29N 25°47' W 080°11'1 2.3
2019-Oct-14 10:00N 25°46' W 080°09'510.0
2019-Oct-14 09:30N 25°46' W 080°04'5 9.2
2019-Oct-14 09:01N 25°42' W 080°02'1020.1
2019-Oct-14 08:31N 25°32' W 080°01'  

Dump ship's entire track history